Time;durP1;ratioP1;P1;durP2;ratioP2;P2;SDS_P1;SDS_P2;PMS_P1;PMS_P2;Temp;Humidity;BMP_temperature;BMP_pressure;BME280_temperature;BME280_humidity;BME280_pressure;Samples;Min_cycle;Max_cycle;Signal;HPM_P1;HPM_P2
2023/11/21 00:00:15;;;;;;;4.50;0.77;;;8.10;77.00;;;;;;4978812;28;20026;-76
2023/11/21 00:02:41;;;;;;;2.38;0.70;;;8.10;76.70;;;;;;4978820;28;20430;-75
2023/11/21 00:05:09;;;;;;;3.13;0.50;;;8.10;76.60;;;;;;4978591;28;20042;-77
2023/11/21 00:07:36;;;;;;;3.75;0.60;;;8.10;77.00;;;;;;4978732;28;20022;-76
2023/11/21 00:10:02;;;;;;;2.33;0.57;;;8.10;76.20;;;;;;4978924;28;20597;-76
2023/11/21 00:12:29;;;;;;;3.65;0.50;;;8.10;76.20;;;;;;4978522;28;20384;-76
2023/11/21 00:14:55;;;;;;;2.65;0.70;;;8.10;76.10;;;;;;4978930;28;20096;-75
2023/11/21 00:17:20;;;;;;;3.67;0.70;;;8.10;76.70;;;;;;4978393;28;20431;-77
2023/11/21 00:19:46;;;;;;;3.22;0.80;;;8.20;76.20;;;;;;4978453;28;20061;-75
2023/11/21 00:22:11;;;;;;;4.13;0.75;;;8.20;76.50;;;;;;4978381;28;20037;-77
2023/11/21 00:24:37;;;;;;;1.13;0.40;;;8.10;77.00;;;;;;4978364;28;20486;-76
2023/11/21 00:27:03;;;;;;;3.58;0.82;;;8.10;77.30;;;;;;4980328;28;20027;-76
2023/11/21 00:29:28;;;;;;;2.35;0.40;;;8.20;77.20;;;;;;4978545;28;20364;-76
2023/11/21 00:31:54;;;;;;;3.58;0.73;;;8.10;77.80;;;;;;4977831;28;20117;-75
2023/11/21 00:34:20;;;;;;;1.23;0.43;;;8.10;78.20;;;;;;4977953;28;20061;-77
2023/11/21 00:36:45;;;;;;;2.05;0.47;;;8.00;77.60;;;;;;4977519;28;20070;-75
2023/11/21 00:39:11;;;;;;;1.83;0.32;;;8.00;78.00;;;;;;4977611;28;20023;-76
2023/11/21 00:41:37;;;;;;;3.20;0.38;;;8.00;78.40;;;;;;4977345;28;20030;-76
2023/11/21 00:44:03;;;;;;;0.98;0.43;;;8.00;77.70;;;;;;4977809;28;20463;-75
2023/11/21 00:46:29;;;;;;;1.88;0.45;;;8.00;78.20;;;;;;4977809;28;20034;-75
2023/11/21 00:48:55;;;;;;;0.90;0.30;;;8.00;77.90;;;;;;4977891;28;20426;-76
2023/11/21 00:51:21;;;;;;;0.38;0.20;;;8.00;78.10;;;;;;4977873;28;20431;-75
2023/11/21 00:53:47;;;;;;;1.40;0.32;;;8.00;77.40;;;;;;4977698;28;20022;-75
2023/11/21 00:56:13;;;;;;;4.20;0.50;;;8.00;77.40;;;;;;4977523;28;20114;-74
2023/11/21 00:58:42;;;;;;;1.75;0.30;;;8.00;77.80;;;;;;4977680;28;20030;-74
2023/11/21 01:01:09;;;;;;;4.10;0.50;;;8.00;78.40;;;;;;4977594;28;20037;-73
2023/11/21 01:03:35;;;;;;;1.35;0.35;;;8.00;78.10;;;;;;4977332;28;20463;-74
2023/11/21 01:06:01;;;;;;;0.95;0.20;;;8.00;77.90;;;;;;4977185;28;20042;-75
2023/11/21 01:08:26;;;;;;;1.35;0.30;;;8.00;77.60;;;;;;4977194;28;20023;-75
2023/11/21 01:10:52;;;;;;;1.35;0.20;;;8.00;77.30;;;;;;4977336;28;20030;-75
2023/11/21 01:13:18;;;;;;;2.30;0.52;;;7.90;77.70;;;;;;4977350;28;20026;-75
2023/11/21 01:15:44;;;;;;;1.40;0.40;;;8.00;77.10;;;;;;4977420;28;20030;-75
2023/11/21 01:18:09;;;;;;;1.85;0.40;;;8.00;77.00;;;;;;4977282;28;20471;-76
2023/11/21 01:20:35;;;;;;;2.15;0.30;;;8.10;76.80;;;;;;4977206;28;20034;-76
2023/11/21 01:23:00;;;;;;;1.55;0.30;;;8.10;76.20;;;;;;4977261;28;20042;-75
2023/11/21 01:25:26;;;;;;;2.08;0.38;;;8.10;76.30;;;;;;4977200;28;20031;-76
2023/11/21 01:27:52;;;;;;;1.40;0.25;;;8.10;76.50;;;;;;4977234;28;20117;-75
2023/11/21 01:30:18;;;;;;;1.10;0.22;;;8.10;76.50;;;;;;4977148;28;20116;-76
2023/11/21 01:32:43;;;;;;;0.85;0.30;;;8.20;76.70;;;;;;4977088;28;20530;-76
2023/11/21 01:35:10;;;;;;;2.47;0.28;;;8.30;76.90;;;;;;4977037;28;20117;-75
2023/11/21 01:37:37;;;;;;;0.63;0.20;;;8.20;76.00;;;;;;4976894;28;20030;-76
2023/11/21 01:40:05;;;;;;;0.57;0.13;;;8.20;74.80;;;;;;4976883;28;20033;-76
2023/11/21 01:42:30;;;;;;;1.23;0.20;;;8.20;74.20;;;;;;4976863;28;20482;-76
2023/11/21 01:44:56;;;;;;;1.13;0.17;;;8.20;74.50;;;;;;4976566;28;20035;-76
2023/11/21 01:47:22;;;;;;;0.20;0.10;;;8.30;75.00;;;;;;4976547;28;20129;-76
2023/11/21 01:49:48;;;;;;;0.98;0.30;;;8.30;74.80;;;;;;4976714;28;20030;-76
2023/11/21 01:52:14;;;;;;;1.10;0.38;;;8.20;74.90;;;;;;4993712;28;20022;-76
2023/11/21 01:54:42;;;;;;;1.30;0.20;;;8.20;75.50;;;;;;4976668;28;20077;-76
2023/11/21 01:57:08;;;;;;;0.85;0.17;;;8.20;75.70;;;;;;4976482;28;20046;-76
2023/11/21 01:59:37;;;;;;;2.53;0.38;;;8.20;75.80;;;;;;4976352;28;20435;-76
2023/11/21 02:02:05;;;;;;;2.42;0.40;;;8.20;76.00;;;;;;4976469;28;20034;-76
2023/11/21 02:04:32;;;;;;;1.42;0.25;;;8.20;76.10;;;;;;4976453;28;20027;-76
2023/11/21 02:06:58;;;;;;;1.20;0.30;;;8.20;75.80;;;;;;4976466;28;20471;-76
2023/11/21 02:09:28;;;;;;;0.60;0.30;;;8.30;76.00;;;;;;4976500;28;20057;-76
2023/11/21 02:11:54;;;;;;;0.30;0.28;;;8.20;75.60;;;;;;4976394;28;20447;-76
2023/11/21 02:14:22;;;;;;;1.00;0.22;;;8.20;75.70;;;;;;4976152;28;20034;-76
2023/11/21 02:16:49;;;;;;;2.08;0.30;;;8.10;75.50;;;;;;4976763;28;20033;-76
2023/11/21 02:19:22;;;;;;;1.08;0.20;;;8.10;76.10;;;;;;4978411;28;20076;-76
2023/11/21 02:21:50;;;;;;;1.27;0.30;;;8.10;75.80;;;;;;4976344;28;20027;-76
2023/11/21 02:24:17;;;;;;;1.35;0.35;;;8.00;76.30;;;;;;4976225;28;20030;-75
2023/11/21 02:26:43;;;;;;;0.50;0.30;;;7.90;76.40;;;;;;4976950;28;20038;-75
2023/11/21 02:29:11;;;;;;;0.85;0.20;;;7.90;77.20;;;;;;4976281;28;20022;-76
2023/11/21 02:31:45;;;;;;;1.65;0.30;;;7.90;77.10;;;;;;4976212;28;20034;-76
2023/11/21 02:34:13;;;;;;;1.35;0.20;;;7.90;76.70;;;;;;4976446;28;20033;-76
2023/11/21 02:36:39;;;;;;;0.43;0.10;;;7.90;76.90;;;;;;4977573;28;20113;-76
2023/11/21 02:39:04;;;;;;;0.30;0.20;;;7.90;76.90;;;;;;4976271;28;20117;-77
2023/11/21 02:41:30;;;;;;;0.15;0.10;;;8.00;76.40;;;;;;4976068;28;20379;-77
2023/11/21 02:43:55;;;;;;;1.25;0.20;;;8.00;76.20;;;;;;4975987;28;20022;-76
2023/11/21 02:46:21;;;;;;;0.93;0.10;;;8.00;76.40;;;;;;4976116;28;20039;-76
2023/11/21 02:48:47;;;;;;;1.67;0.17;;;8.00;76.60;;;;;;4976037;28;20490;-76
2023/11/21 02:51:15;;;;;;;0.65;0.25;;;8.00;76.60;;;;;;4976067;28;20062;-76
2023/11/21 02:53:41;;;;;;;0.52;0.10;;;7.90;76.00;;;;;;4975670;28;20026;-76
2023/11/21 02:56:08;;;;;;;2.60;0.20;;;7.90;76.10;;;;;;4975636;28;20022;-76
2023/11/21 02:58:33;;;;;;;1.45;0.30;;;7.90;76.20;;;;;;4975518;28;20483;-76
2023/11/21 03:00:59;;;;;;;1.25;0.20;;;7.90;76.10;;;;;;4975905;28;20081;-76
2023/11/21 03:03:25;;;;;;;1.67;0.28;;;7.90;76.30;;;;;;4976885;28;20582;-76
2023/11/21 03:05:51;;;;;;;1.65;0.32;;;8.00;76.30;;;;;;4979730;28;20034;-76
2023/11/21 03:08:16;;;;;;;0.50;0.20;;;8.00;76.80;;;;;;4979494;28;20023;-76
2023/11/21 03:10:42;;;;;;;0.30;0.20;;;8.00;77.20;;;;;;4979572;28;20031;-75
2023/11/21 03:13:08;;;;;;;0.65;0.10;;;7.90;77.40;;;;;;4973032;28;20023;-75
2023/11/21 03:15:34;;;;;;;0.65;0.30;;;7.80;77.70;;;;;;4960370;28;20424;-74
2023/11/21 03:18:00;;;;;;;0.68;0.20;;;7.80;78.10;;;;;;4963773;28;20073;-75
2023/11/21 03:20:26;;;;;;;0.85;0.30;;;7.70;78.50;;;;;;4961579;28;20030;-74
2023/11/21 03:22:51;;;;;;;0.45;0.13;;;7.80;78.50;;;;;;4960737;28;20027;-74
2023/11/21 03:25:17;;;;;;;0.43;0.10;;;7.70;78.30;;;;;;4959968;28;20061;-74
2023/11/21 03:27:44;;;;;;;0.65;0.10;;;7.70;78.70;;;;;;4959889;28;20022;-74
2023/11/21 03:30:10;;;;;;;0.65;0.20;;;7.70;78.60;;;;;;4960022;28;20033;-74
2023/11/21 03:32:36;;;;;;;2.40;0.25;;;7.80;78.80;;;;;;4959927;28;20031;-75
2023/11/21 03:35:03;;;;;;;1.85;0.10;;;7.80;77.70;;;;;;4959815;28;20064;-74
2023/11/21 03:37:30;;;;;;;1.45;0.20;;;7.80;78.00;;;;;;4959797;28;20026;-75
2023/11/21 03:39:56;;;;;;;1.00;0.28;;;7.90;78.00;;;;;;4959698;28;20027;-75
2023/11/21 03:42:22;;;;;;;0.50;0.20;;;7.90;78.10;;;;;;4959799;28;20074;-75
2023/11/21 03:44:47;;;;;;;2.08;0.40;;;7.90;78.10;;;;;;4959635;28;20035;-74
2023/11/21 03:47:13;;;;;;;1.48;0.52;;;8.00;78.10;;;;;;4975733;28;20479;-74
2023/11/21 03:49:39;;;;;;;1.17;0.30;;;8.00;77.80;;;;;;4959127;28;20031;-74
2023/11/21 03:52:05;;;;;;;0.88;0.30;;;8.10;77.70;;;;;;4959518;28;20153;-74
2023/11/21 03:54:30;;;;;;;0.45;0.30;;;8.00;77.60;;;;;;4959326;28;20027;-74
2023/11/21 03:56:56;;;;;;;0.65;0.30;;;8.00;77.90;;;;;;4959269;28;20102;-74
2023/11/21 03:59:24;;;;;;;0.55;0.20;;;8.00;77.80;;;;;;4959501;28;20043;-75
2023/11/21 04:01:50;;;;;;;0.35;0.10;;;8.00;77.60;;;;;;4959149;28;20026;-75
2023/11/21 04:04:15;;;;;;;1.00;0.20;;;7.90;77.60;;;;;;4959295;28;20058;-75
2023/11/21 04:06:41;;;;;;;0.22;0.20;;;8.00;77.80;;;;;;4959369;28;20385;-77
2023/11/21 04:09:07;;;;;;;0.50;0.30;;;8.00;77.80;;;;;;4959303;28;20115;-74
2023/11/21 04:11:32;;;;;;;0.60;0.20;;;8.10;78.00;;;;;;4959172;28;20066;-76
2023/11/21 04:13:59;;;;;;;0.38;0.20;;;8.10;78.10;;;;;;4958561;28;20388;-74
2023/11/21 04:16:24;;;;;;;0.98;0.20;;;8.20;78.10;;;;;;4958849;28;20456;-76
2023/11/21 04:18:50;;;;;;;1.52;0.45;;;8.20;78.10;;;;;;4959052;28;20058;-76
2023/11/21 04:21:17;;;;;;;0.40;0.13;;;8.30;78.10;;;;;;4959081;28;20033;-76
2023/11/21 04:23:42;;;;;;;0.60;0.32;;;8.20;78.20;;;;;;4959051;28;20026;-76
2023/11/21 04:26:08;;;;;;;0.30;0.20;;;8.30;78.40;;;;;;4958805;28;20035;-76
2023/11/21 04:28:34;;;;;;;0.95;0.30;;;8.20;77.30;;;;;;4958922;28;20034;-76
2023/11/21 04:31:00;;;;;;;0.75;0.20;;;8.20;76.10;;;;;;4958550;28;20114;-76
2023/11/21 04:33:25;;;;;;;1.52;0.70;;;8.10;76.70;;;;;;4958854;28;20122;-76
2023/11/21 04:35:51;;;;;;;1.98;0.57;;;8.10;76.00;;;;;;4958775;28;20041;-75
2023/11/21 04:38:17;;;;;;;0.88;0.25;;;8.10;76.10;;;;;;4958687;28;20034;-75
2023/11/21 04:40:42;;;;;;;1.30;0.80;;;8.10;76.40;;;;;;4958595;28;20066;-77
2023/11/21 04:43:08;;;;;;;1.42;0.30;;;8.00;76.40;;;;;;4975762;28;20109;-75
2023/11/21 04:45:34;;;;;;;1.80;0.32;;;8.10;76.70;;;;;;4958528;28;20427;-75
2023/11/21 04:48:00;;;;;;;2.13;0.52;;;8.10;76.80;;;;;;4958356;28;20472;-75
2023/11/21 04:50:27;;;;;;;2.50;1.20;;;8.00;76.80;;;;;;4958246;28;20034;-75
2023/11/21 04:52:54;;;;;;;2.70;1.50;;;7.90;76.90;;;;;;4958379;28;20023;-74
2023/11/21 04:55:19;;;;;;;2.95;1.17;;;8.00;77.00;;;;;;4958280;28;20042;-74
2023/11/21 04:57:46;;;;;;;1.58;0.90;;;8.00;77.10;;;;;;4958183;28;20204;-74
2023/11/21 05:00:12;;;;;;;0.93;0.40;;;8.00;77.70;;;;;;4958244;28;20114;-75
2023/11/21 05:02:38;;;;;;;1.25;0.35;;;8.10;77.60;;;;;;4974492;28;20114;-77
2023/11/21 05:05:06;;;;;;;2.08;1.17;;;8.10;77.50;;;;;;4957828;28;20042;-76
2023/11/21 05:07:32;;;;;;;2.60;1.55;;;8.10;77.80;;;;;;4958174;28;20066;-75
2023/11/21 05:09:58;;;;;;;2.55;2.20;;;8.10;77.80;;;;;;4957835;28;20058;-74
2023/11/21 05:12:24;;;;;;;3.30;1.90;;;8.10;78.10;;;;;;4958093;28;20031;-75
2023/11/21 05:14:50;;;;;;;3.03;1.13;;;8.10;78.30;;;;;;4975115;28;20502;-75
2023/11/21 05:17:16;;;;;;;1.50;0.70;;;8.10;78.70;;;;;;4957756;28;20035;-75
2023/11/21 05:19:42;;;;;;;1.30;0.70;;;8.10;78.90;;;;;;4957607;28;20030;-75
2023/11/21 05:22:08;;;;;;;0.85;0.80;;;8.00;78.80;;;;;;4975366;28;20106;-75
2023/11/21 05:24:34;;;;;;;1.05;0.57;;;8.00;78.90;;;;;;4957707;28;20050;-75
2023/11/21 05:27:03;;;;;;;0.45;0.30;;;8.00;78.90;;;;;;4974286;28;20031;-74
2023/11/21 05:29:29;;;;;;;1.30;0.40;;;8.10;79.00;;;;;;4957616;28;20023;-75
2023/11/21 05:31:55;;;;;;;0.50;0.30;;;8.10;79.00;;;;;;4957604;28;20165;-74
2023/11/21 05:34:23;;;;;;;0.85;0.20;;;8.10;78.90;;;;;;4957573;28;20025;-74
2023/11/21 05:36:49;;;;;;;0.50;0.20;;;8.10;78.90;;;;;;4957470;28;20450;-74
2023/11/21 05:39:17;;;;;;;0.88;0.20;;;8.10;78.70;;;;;;4957589;28;20033;-73
2023/11/21 05:41:44;;;;;;;1.30;0.55;;;8.20;78.60;;;;;;4957604;28;20034;-76
2023/11/21 05:44:09;;;;;;;0.60;0.60;;;8.10;78.70;;;;;;4957451;28;20538;-75
2023/11/21 05:46:35;;;;;;;2.88;0.90;;;8.10;78.50;;;;;;4957629;28;20031;-76
2023/11/21 05:49:00;;;;;;;2.92;1.40;;;8.10;78.40;;;;;;4957586;28;20133;-76
2023/11/21 05:51:26;;;;;;;4.75;2.65;;;8.20;78.50;;;;;;4973503;28;20042;-76
2023/11/21 05:53:51;;;;;;;4.30;2.20;;;8.10;78.20;;;;;;4966279;28;20026;-75
2023/11/21 05:56:18;;;;;;;4.78;2.67;;;8.10;78.30;;;;;;4976240;28;20057;-77
2023/11/21 05:58:43;;;;;;;8.35;3.60;;;8.10;78.30;;;;;;4976598;28;20034;-77
2023/11/21 06:01:12;;;;;;;4.35;2.92;;;8.10;78.50;;;;;;4976647;28;20438;-76
2023/11/21 06:03:38;;;;;;;3.78;2.70;;;8.10;78.40;;;;;;4976458;28;20026;-76
2023/11/21 06:06:04;;;;;;;4.78;3.33;;;8.10;78.20;;;;;;4976411;28;20030;-76
2023/11/21 06:08:30;;;;;;;5.53;3.60;;;8.10;78.40;;;;;;4975993;28;20030;-76
2023/11/21 06:10:55;;;;;;;5.10;2.88;;;8.20;78.50;;;;;;4978220;28;20037;-75
2023/11/21 06:13:24;;;;;;;2.83;2.10;;;8.10;78.70;;;;;;4979344;28;20018;-75
2023/11/21 06:15:51;;;;;;;2.88;1.75;;;8.20;78.70;;;;;;4978281;28;20030;-75
2023/11/21 06:18:19;;;;;;;1.73;1.23;;;8.20;78.70;;;;;;4993479;28;20026;-75
2023/11/21 06:20:45;;;;;;;2.05;1.58;;;8.20;78.70;;;;;;4975993;28;20467;-75
2023/11/21 06:23:11;;;;;;;2.40;1.67;;;8.20;78.90;;;;;;4975946;28;20026;-77
2023/11/21 06:25:36;;;;;;;3.10;2.35;;;8.20;79.00;;;;;;4975912;28;20109;-76
2023/11/21 06:28:02;;;;;;;4.30;2.92;;;8.20;79.10;;;;;;4975668;28;20026;-76
2023/11/21 06:30:28;;;;;;;4.45;3.72;;;8.20;79.20;;;;;;4975579;28;20042;-76
2023/11/21 06:32:54;;;;;;;4.07;3.55;;;8.20;79.50;;;;;;4975665;28;20438;-75
2023/11/21 06:35:20;;;;;;;6.57;3.70;;;8.20;79.70;;;;;;4975995;28;20026;-75
2023/11/21 06:37:49;;;;;;;5.30;3.67;;;8.20;79.80;;;;;;4977360;28;20479;-76
2023/11/21 06:40:15;;;;;;;6.93;4.55;;;8.20;79.90;;;;;;4979690;28;20391;-75
2023/11/21 06:42:41;;;;;;;12.43;6.53;;;8.20;79.90;;;;;;4979999;28;20022;-75
2023/11/21 06:45:07;;;;;;;9.98;6.10;;;8.20;79.80;;;;;;4979724;28;20121;-77
2023/11/21 06:47:33;;;;;;;9.77;5.75;;;8.20;80.00;;;;;;4979777;28;20030;-75
2023/11/21 06:50:00;;;;;;;8.80;5.93;;;8.20;80.50;;;;;;4979673;28;20073;-77
2023/11/21 06:52:26;;;;;;;11.60;7.32;;;8.20;79.90;;;;;;4979690;28;20049;-76
2023/11/21 06:54:51;;;;;;;12.35;8.48;;;8.20;79.80;;;;;;4979578;28;20023;-77
2023/11/21 06:57:17;;;;;;;14.02;8.88;;;8.20;79.80;;;;;;4976281;28;20399;-74
2023/11/21 06:59:43;;;;;;;6.80;5.65;;;8.20;79.80;;;;;;4976511;28;20078;-77
2023/11/21 07:02:09;;;;;;;8.05;5.15;;;8.30;80.10;;;;;;4976444;28;20078;-76
2023/11/21 07:04:35;;;;;;;6.45;3.50;;;8.30;80.40;;;;;;4976213;28;20023;-77
2023/11/21 07:07:04;;;;;;;5.43;2.88;;;8.30;80.60;;;;;;4976466;28;20034;-77
2023/11/21 07:09:30;;;;;;;3.83;2.90;;;8.30;80.80;;;;;;4976153;28;20464;-77
2023/11/21 07:11:56;;;;;;;2.58;2.17;;;8.30;80.80;;;;;;4976164;28;20038;-77
2023/11/21 07:14:22;;;;;;;4.85;2.38;;;8.40;80.90;;;;;;4976222;28;20069;-78
2023/11/21 07:16:48;;;;;;;3.70;2.20;;;8.40;80.90;;;;;;4975566;28;20475;-76
2023/11/21 07:19:14;;;;;;;4.97;2.50;;;8.30;81.20;;;;;;4977137;28;20073;-76
2023/11/21 07:21:40;;;;;;;9.98;6.25;;;8.40;81.10;;;;;;4975791;28;20030;-76
2023/11/21 07:24:07;;;;;;;9.20;5.97;;;8.40;81.40;;;;;;4976026;28;20028;-76
2023/11/21 07:26:33;;;;;;;6.88;3.15;;;8.40;81.10;;;;;;4975907;28;20515;-76
2023/11/21 07:29:00;;;;;;;3.63;2.22;;;8.40;81.10;;;;;;4959578;28;20129;-76
2023/11/21 07:31:26;;;;;;;5.10;3.35;;;8.40;81.10;;;;;;4976021;28;20286;-76
2023/11/21 07:33:52;;;;;;;5.50;3.38;;;8.40;80.90;;;;;;4975969;28;20118;-75
2023/11/21 07:36:20;;;;;;;7.60;3.80;;;8.40;81.00;;;;;;4975820;28;20491;-76
2023/11/21 07:38:47;;;;;;;5.50;3.10;;;8.50;81.00;;;;;;4975534;28;20368;-75
2023/11/21 07:41:15;;;;;;;4.25;2.75;;;8.50;80.80;;;;;;4975754;28;20534;-75
2023/11/21 07:43:41;;;;;;;10.70;3.08;;;8.60;80.50;;;;;;4975860;28;20027;-80
2023/11/21 07:46:08;;;;;;;3.95;2.00;;;8.80;87.50;;;;;;4976417;28;20121;-78
2023/11/21 07:48:36;;;;;;;3.70;1.67;;;8.90;84.80;;;;;;4975193;28;20170;-78
2023/11/21 07:51:06;;;;;;;3.15;1.58;;;9.10;84.50;;;;;;4975184;28;20039;-80
2023/11/21 07:53:32;;;;;;;1.90;0.90;;;9.30;81.00;;;;;;4975699;28;20022;-78
2023/11/21 07:56:09;;;;;;;1.20;0.45;;;9.30;77.00;;;;;;4976827;28;20022;-81
2023/11/21 07:58:38;;;;;;;1.05;0.60;;;9.40;74.70;;;;;;4954454;28;20050;-82
2023/11/21 08:01:05;;;;;;;1.55;0.60;;;9.50;76.20;;;;;;4975618;28;20035;-78
2023/11/21 08:03:32;;;;;;;1.02;0.47;;;9.60;74.80;;;;;;4975357;28;20027;-77
2023/11/21 08:06:03;;;;;;;0.88;0.70;;;9.60;73.00;;;;;;4975385;28;20035;-81
2023/11/21 08:08:28;;;;;;;1.95;0.88;;;9.30;74.80;;;;;;4975146;28;20018;-78
2023/11/21 08:10:56;;;;;;;0.70;0.70;;;9.30;74.80;;;;;;4976205;28;20035;-78
2023/11/21 08:13:25;;;;;;;0.73;0.65;;;9.30;74.30;;;;;;4959174;28;20464;-75
2023/11/21 08:16:01;;;;;;;2.80;1.10;;;9.40;74.50;;;;;;4958775;28;20034;-76
2023/11/21 08:18:26;;;;;;;;;;;9.50;74.90;;;;;;4975136;28;20027;-76
2023/11/21 08:20:52;;;;;;;;;;;9.70;74.60;;;;;;4975047;28;19906;-75
2023/11/21 08:23:18;;;;;;;2.97;0.90;;;9.80;73.20;;;;;;4975174;28;19906;-75
2023/11/21 08:25:44;;;;;;;2.13;0.90;;;9.90;73.30;;;;;;4974787;28;20058;-76
2023/11/21 08:28:10;;;;;;;1.00;0.65;;;10.10;72.60;;;;;;4975032;28;20027;-75
2023/11/21 08:30:35;;;;;;;0.70;0.40;;;10.20;72.70;;;;;;4974662;28;20383;-76
2023/11/21 08:33:03;;;;;;;1.30;0.68;;;10.30;70.70;;;;;;4973934;28;20031;-76
2023/11/21 08:35:28;;;;;;;3.03;1.27;;;10.30;70.70;;;;;;4958636;28;20121;-77
2023/11/21 08:37:54;;;;;;;1.08;0.70;;;10.30;70.80;;;;;;4974449;28;20165;-77
2023/11/21 08:40:21;;;;;;;0.88;0.80;;;10.40;70.00;;;;;;4942832;28;20034;-77
2023/11/21 08:42:51;;;;;;;1.17;0.50;;;10.30;70.30;;;;;;4974475;28;20050;-76
2023/11/21 08:45:17;;;;;;;2.20;0.57;;;10.30;70.80;;;;;;4958949;28;20041;-77
2023/11/21 08:52:47;;;;;;;1.25;0.95;;;10.30;70.30;;;;;;5011380;22;19948;-77
2023/11/21 08:55:13;;;;;;;2.83;1.08;;;10.30;70.30;;;;;;5057904;23;20089;-78
2023/11/21 08:57:40;;;;;;;2.92;1.40;;;10.20;70.40;;;;;;5004090;23;20077;-79
2023/11/21 09:00:15;;;;;;;1.42;0.90;;;10.00;71.50;;;;;;4996996;28;20080;-77
2023/11/21 09:02:43;;;;;;;3.38;1.40;;;9.90;71.70;;;;;;4996541;28;20037;-78
2023/11/21 09:05:10;;;;;;;3.85;1.52;;;9.70;72.40;;;;;;4997595;28;20080;-75
2023/11/21 09:07:41;;;;;;;4.68;1.38;;;9.70;72.10;;;;;;4997379;28;20072;-76
2023/11/21 09:10:07;;;;;;;2.35;1.30;;;9.30;73.20;;;;;;4998060;28;20521;-75
2023/11/21 09:12:37;;;;;;;1.38;0.70;;;9.00;75.00;;;;;;4998415;28;20025;-76
2023/11/21 09:15:07;;;;;;;2.88;1.40;;;8.70;76.00;;;;;;4997107;28;20017;-76
2023/11/21 09:17:36;;;;;;;4.38;1.65;;;8.60;77.40;;;;;;4996852;28;20093;-76
2023/11/21 09:20:05;;;;;;;3.55;1.50;;;8.50;77.40;;;;;;4996476;28;20054;-77
2023/11/21 09:22:32;;;;;;;3.40;1.23;;;8.50;77.90;;;;;;4996538;28;20085;-76
2023/11/21 09:24:58;;;;;;;2.42;1.65;;;8.40;77.90;;;;;;4996353;28;20029;-76
2023/11/21 09:27:23;;;;;;;1.50;1.10;;;8.40;78.70;;;;;;4996506;28;20033;-76
2023/11/21 09:29:49;;;;;;;3.75;1.27;;;8.40;78.40;;;;;;4996523;28;20029;-76
2023/11/21 09:32:16;;;;;;;2.00;0.90;;;8.50;78.00;;;;;;4996496;28;20471;-76
2023/11/21 09:34:41;;;;;;;2.33;1.10;;;8.50;77.80;;;;;;4996552;28;20030;-76
2023/11/21 09:37:08;;;;;;;3.85;1.58;;;8.60;77.90;;;;;;4996068;28;20037;-76
2023/11/21 09:39:39;;;;;;;2.05;1.70;;;8.50;78.90;;;;;;4996250;28;20029;-76
2023/11/21 09:42:16;;;;;;;3.15;1.40;;;8.50;79.40;;;;;;4980720;28;20076;-75
2023/11/21 09:44:55;;;;;;;2.15;1.25;;;8.40;78.90;;;;;;4995930;28;20034;-75
2023/11/21 09:47:22;;;;;;;1.40;1.10;;;8.50;78.50;;;;;;4995997;28;20029;-75
2023/11/21 09:49:49;;;;;;;1.55;1.10;;;8.50;79.60;;;;;;4995879;28;20435;-77
2023/11/21 09:52:28;;;;;;;2.00;1.08;;;8.60;78.40;;;;;;4995976;28;20037;-77
2023/11/21 09:54:57;;;;;;;1.70;1.20;;;8.70;78.00;;;;;;4995943;28;20467;-77
2023/11/21 09:57:23;;;;;;;1.20;1.00;;;8.50;78.70;;;;;;4979641;28;20057;-78
2023/11/21 09:59:59;;;;;;;4.80;1.50;;;8.60;78.40;;;;;;5013146;28;20045;-77
2023/11/21 10:02:30;;;;;;;3.40;1.00;;;8.70;78.10;;;;;;4995787;28;20056;-77
2023/11/21 10:04:56;;;;;;;2.15;1.38;;;8.80;77.40;;;;;;4994953;28;20562;-76
2023/11/21 10:07:23;;;;;;;2.17;0.90;;;8.80;78.40;;;;;;4995306;28;20080;-76
2023/11/21 10:09:51;;;;;;;2.22;1.10;;;8.80;77.50;;;;;;4995578;28;20024;-75
2023/11/21 10:12:16;;;;;;;2.47;1.27;;;8.70;78.60;;;;;;4995152;28;20060;-75
2023/11/21 10:14:43;;;;;;;2.20;1.30;;;8.70;79.40;;;;;;4995610;28;20416;-76
2023/11/21 10:17:15;;;;;;;3.05;1.33;;;8.70;78.10;;;;;;4995319;28;20025;-75
2023/11/21 10:19:42;;;;;;;1.48;1.38;;;8.70;78.80;;;;;;4995509;28;20109;-76
2023/11/21 10:22:08;;;;;;;1.30;1.20;;;8.70;78.80;;;;;;4995315;28;20390;-75
2023/11/21 10:24:34;;;;;;;1.55;0.90;;;8.60;78.90;;;;;;4995329;28;20080;-76
2023/11/21 10:27:02;;;;;;;5.95;1.25;;;8.70;78.30;;;;;;4994984;28;20471;-76
2023/11/21 10:29:30;;;;;;;2.38;1.13;;;8.50;79.00;;;;;;4995270;28;20022;-77
2023/11/21 10:31:58;;;;;;;1.92;1.40;;;8.50;78.80;;;;;;4995175;28;20386;-77
2023/11/21 10:34:24;;;;;;;2.53;1.27;;;8.40;79.00;;;;;;4995721;28;20034;-76
2023/11/21 10:36:50;;;;;;;3.40;1.15;;;8.40;79.80;;;;;;4995169;28;20390;-75
2023/11/21 10:39:20;;;;;;;1.10;1.00;;;8.40;79.60;;;;;;5012304;28;20058;-73
2023/11/21 10:41:46;;;;;;;2.17;1.10;;;8.40;79.70;;;;;;4995279;28;20474;-75
2023/11/21 10:44:22;;;;;;;0.77;0.77;;;8.40;79.80;;;;;;4978985;28;20144;-76
2023/11/21 10:46:54;;;;;;;2.17;1.00;;;8.50;79.40;;;;;;4979530;28;20484;-75
2023/11/21 10:49:24;;;;;;;2.60;1.35;;;8.40;78.80;;;;;;5012600;28;20030;-75
2023/11/21 10:51:53;;;;;;;2.35;1.05;;;8.50;79.30;;;;;;5012285;28;20168;-75
2023/11/21 10:54:20;;;;;;;2.97;1.63;;;8.40;79.70;;;;;;4994537;28;20148;-76
2023/11/21 10:56:53;;;;;;;2.45;1.77;;;8.30;80.80;;;;;;4995143;28;20438;-76
2023/11/21 10:59:20;;;;;;;2.85;1.58;;;8.40;81.80;;;;;;5012066;28;20034;-76
2023/11/21 11:01:49;;;;;;;2.00;1.25;;;8.30;81.40;;;;;;5012879;28;20034;-77
2023/11/21 11:04:17;;;;;;;2.15;1.38;;;8.30;81.60;;;;;;4994211;28;20080;-77
2023/11/21 11:06:43;;;;;;;1.85;1.13;;;8.40;81.00;;;;;;4994577;28;20077;-77
2023/11/21 11:09:13;;;;;;;1.35;0.90;;;8.50;80.60;;;;;;4994936;28;20065;-77
2023/11/21 11:11:44;;;;;;;1.50;1.30;;;8.60;80.50;;;;;;4995024;28;20079;-77
2023/11/21 11:14:13;;;;;;;1.45;1.20;;;8.60;80.80;;;;;;4995133;28;20058;-76
2023/11/21 11:16:41;;;;;;;2.25;1.52;;;8.70;80.90;;;;;;4994800;28;20053;-77
2023/11/21 11:19:07;;;;;;;3.33;1.80;;;8.80;80.90;;;;;;4994946;28;20021;-77
2023/11/21 11:21:47;;;;;;;2.38;1.33;;;8.70;81.60;;;;;;4994520;28;20025;-77
2023/11/21 11:24:51;;;;;;;2.13;1.20;;;8.70;82.20;;;;;;5013172;28;20026;-77
2023/11/21 11:27:49;;;;;;;1.30;1.10;;;8.70;82.30;;;;;;4994579;28;20038;-77
2023/11/21 11:30:41;;;;;;;1.67;1.30;;;8.50;82.70;;;;;;4998594;28;20026;-77
2023/11/21 11:33:25;;;;;;;2.60;1.25;;;8.60;83.40;;;;;;4998577;28;20081;-77
2023/11/21 11:36:04;;;;;;;1.58;1.20;;;8.60;83.40;;;;;;4998097;28;20116;-77
2023/11/21 11:38:33;;;;;;;3.13;1.30;;;8.60;83.70;;;;;;4997991;28;20464;-77
2023/11/21 11:41:05;;;;;;;1.98;1.30;;;8.70;83.40;;;;;;5015313;28;20465;-76
2023/11/21 11:43:43;;;;;;;1.80;1.52;;;8.80;82.90;;;;;;5015383;28;20068;-77
2023/11/21 11:46:10;;;;;;;2.92;1.50;;;8.90;82.60;;;;;;5015663;28;20030;-77
2023/11/21 11:48:39;;;;;;;1.33;1.20;;;9.00;82.00;;;;;;5015494;28;20018;-77
2023/11/21 11:51:11;;;;;;;1.60;1.00;;;9.00;81.60;;;;;;5015033;28;20463;-77
2023/11/21 11:53:41;;;;;;;1.95;1.20;;;9.00;80.80;;;;;;5014769;28;20029;-76
2023/11/21 11:56:27;;;;;;;1.80;1.63;;;9.00;80.80;;;;;;5014981;28;20018;-77
2023/11/21 11:59:03;;;;;;;1.92;1.55;;;9.10;81.10;;;;;;5014355;28;20042;-74
2023/11/21 12:01:32;;;;;;;4.03;1.15;;;9.10;80.50;;;;;;5014647;28;20471;-74
2023/11/21 12:04:20;;;;;;;1.95;1.23;;;9.10;80.30;;;;;;5016003;28;20034;-74
2023/11/21 12:06:48;;;;;;;1.83;0.80;;;9.10;80.50;;;;;;5015359;28;20091;-75
2023/11/21 12:09:24;;;;;;;1.88;0.80;;;9.00;78.80;;;;;;5014544;28;20112;-74
2023/11/21 12:11:50;;;;;;;1.13;0.98;;;9.10;78.90;;;;;;5014615;28;20177;-75
2023/11/21 12:14:16;;;;;;;1.88;0.95;;;9.00;79.80;;;;;;5015087;28;20030;-74
2023/11/21 12:16:48;;;;;;;2.33;1.10;;;8.90;80.20;;;;;;5015262;28;20022;-77
2023/11/21 12:19:13;;;;;;;2.35;1.15;;;8.80;80.40;;;;;;5015067;28;20482;-75
2023/11/21 12:21:42;;;;;;;1.27;1.13;;;8.70;81.00;;;;;;5015145;28;20026;-75
2023/11/21 12:24:13;;;;;;;2.15;0.93;;;8.60;81.80;;;;;;5014785;28;20025;-74
2023/11/21 12:26:42;;;;;;;2.67;1.60;;;8.60;82.10;;;;;;4997345;28;20044;-74
2023/11/21 12:29:08;;;;;;;0.80;0.80;;;8.60;82.10;;;;;;4996867;28;20103;-76
2023/11/21 12:31:35;;;;;;;1.98;1.30;;;8.60;82.40;;;;;;5014632;28;20470;-75
2023/11/21 12:34:01;;;;;;;3.00;1.40;;;8.70;82.30;;;;;;4996854;28;20038;-75
2023/11/21 12:36:28;;;;;;;1.35;1.00;;;8.70;81.80;;;;;;4996902;28;20030;-73
2023/11/21 12:38:54;;;;;;;2.95;1.50;;;8.80;82.00;;;;;;5014652;28;20117;-75
2023/11/21 12:41:21;;;;;;;2.63;1.67;;;8.70;82.20;;;;;;4996922;28;20033;-75
2023/11/21 12:43:47;;;;;;;5.40;3.35;;;8.80;82.20;;;;;;4996972;28;20025;-75
2023/11/21 12:46:15;;;;;;;5.30;3.60;;;8.90;81.80;;;;;;5014488;28;20030;-74
2023/11/21 12:48:45;;;;;;;2.92;1.33;;;8.90;81.80;;;;;;4996574;28;20116;-75
2023/11/21 12:51:13;;;;;;;1.48;1.15;;;8.90;81.70;;;;;;4996764;28;20074;-74
2023/11/21 12:53:40;;;;;;;1.45;1.00;;;8.90;82.60;;;;;;4996823;28;20466;-75
2023/11/21 12:56:09;;;;;;;0.90;0.90;;;8.70;83.40;;;;;;5014016;28;20039;-74
2023/11/21 12:58:35;;;;;;;2.05;0.80;;;8.70;83.80;;;;;;4996460;28;20454;-75
2023/11/21 13:01:04;;;;;;;1.05;0.95;;;8.70;83.80;;;;;;4997329;28;20026;-75
2023/11/21 13:03:34;;;;;;;4.40;2.90;;;8.70;85.20;;;;;;5014364;28;20044;-77